Time;durP1;ratioP1;P1;durP2;ratioP2;P2;SDS_P1;SDS_P2;PMS_P1;PMS_P2;Temp;Humidity;BMP_temperature;BMP_pressure;BME280_temperature;BME280_humidity;BME280_pressure;Samples;Min_cycle;Max_cycle;Signal;HPM_P1;HPM_P2
2023/08/10 00:00:12;;;;;;;2.42;1.45;;;19.80;70.50;;;;;;5035796;28;20163;-88
2023/08/10 00:02:39;;;;;;;2.05;1.40;;;19.70;70.50;;;;;;5035480;28;20656;-89
2023/08/10 00:05:13;;;;;;;2.25;1.30;;;19.70;70.50;;;;;;5035309;28;20154;-88
2023/08/10 00:07:40;;;;;;;2.45;1.30;;;19.70;70.50;;;;;;5034615;28;20177;-90
2023/08/10 00:10:08;;;;;;;3.08;1.38;;;19.70;70.50;;;;;;5035464;28;20162;-91
2023/08/10 00:12:35;;;;;;;2.20;1.35;;;19.70;70.50;;;;;;5051347;28;20283;-89
2023/08/10 00:15:06;;;;;;;2.58;1.40;;;19.80;70.50;;;;;;5068449;28;20172;-88
2023/08/10 00:17:33;;;;;;;2.85;1.58;;;19.70;70.60;;;;;;5034486;28;20178;-90
2023/08/10 00:19:59;;;;;;;3.33;1.27;;;19.70;70.50;;;;;;5069822;28;20227;-91
2023/08/10 00:22:25;;;;;;;3.17;1.52;;;19.70;70.50;;;;;;5055514;28;20625;-87
2023/08/10 00:24:51;;;;;;;2.55;1.45;;;19.70;70.50;;;;;;5056388;28;20204;-89
2023/08/10 00:27:23;;;;;;;2.35;1.30;;;19.80;70.60;;;;;;5043520;28;20166;-90
2023/08/10 00:29:50;;;;;;;3.80;1.38;;;19.70;70.60;;;;;;5059503;28;20640;-91
2023/08/10 00:32:19;;;;;;;3.83;1.40;;;19.70;70.50;;;;;;5060315;28;20174;-91
2023/08/10 00:34:48;;;;;;;3.00;1.50;;;19.80;70.60;;;;;;5059735;28;20142;-89
2023/08/10 00:37:22;;;;;;;2.42;1.30;;;19.70;70.60;;;;;;5043604;28;20166;-89
2023/08/10 00:39:54;;;;;;;2.40;1.40;;;19.70;70.60;;;;;;5042833;28;20192;-90
2023/08/10 00:42:21;;;;;;;2.22;1.48;;;19.60;70.60;;;;;;5059469;28;20185;-88
2023/08/10 00:44:47;;;;;;;3.92;1.60;;;19.70;70.60;;;;;;5042889;28;20177;-89
2023/08/10 00:47:18;;;;;;;2.70;1.33;;;19.70;71.40;;;;;;5043411;28;20193;-88
2023/08/10 00:49:44;;;;;;;2.75;1.60;;;19.80;70.60;;;;;;5058366;28;20189;-90
2023/08/10 00:52:12;;;;;;;1.90;1.40;;;19.70;70.60;;;;;;5041609;28;20738;-91
2023/08/10 00:54:38;;;;;;;1.90;1.50;;;19.70;70.60;;;;;;5041460;28;20582;-91
2023/08/10 00:57:11;;;;;;;2.13;1.35;;;19.70;70.60;;;;;;5025904;28;20258;-89
2023/08/10 00:59:41;;;;;;;3.58;1.58;;;19.70;70.60;;;;;;5024811;28;20214;-89
2023/08/10 01:02:07;;;;;;;3.58;1.70;;;19.70;70.70;;;;;;5008545;28;20257;-88
2023/08/10 01:04:33;;;;;;;1.73;1.23;;;19.80;70.60;;;;;;5042300;28;20743;-89
2023/08/10 01:07:19;;;;;;;2.53;1.25;;;19.70;70.60;;;;;;5041358;28;20672;-88
2023/08/10 01:10:10;;;;;;;2.08;1.67;;;19.70;70.60;;;;;;5058482;28;20190;-90
2023/08/10 01:12:45;;;;;;;1.92;1.55;;;19.70;70.60;;;;;;5024664;28;20766;-90
2023/08/10 01:15:34;;;;;;;2.50;1.50;;;19.70;70.70;;;;;;5021856;28;20328;-90
2023/08/10 01:18:00;;;;;;;1.83;1.33;;;19.70;70.60;;;;;;4989279;28;20708;-90
2023/08/10 01:20:30;;;;;;;1.85;1.20;;;19.70;70.60;;;;;;5002145;28;20234;-91
2023/08/10 01:23:17;;;;;;;2.63;1.30;;;19.70;70.60;;;;;;5002061;28;20294;-91
2023/08/10 01:25:50;;;;;;;3.55;1.35;;;19.70;70.60;;;;;;5002450;28;20709;-89
2023/08/10 01:28:16;;;;;;;2.65;1.48;;;19.70;70.60;;;;;;4970110;28;20187;-90
2023/08/10 01:30:50;;;;;;;2.15;1.33;;;19.70;70.60;;;;;;5018295;28;20203;-89
2023/08/10 01:33:21;;;;;;;2.45;1.35;;;19.70;70.70;;;;;;4968592;28;20191;-90
2023/08/10 01:35:51;;;;;;;2.80;1.42;;;19.70;70.60;;;;;;4985387;28;20662;-90
2023/08/10 01:38:26;;;;;;;2.25;1.40;;;19.70;70.70;;;;;;4969649;28;20187;-88
2023/08/10 01:40:52;;;;;;;2.47;1.45;;;19.70;70.70;;;;;;5001266;28;20183;-88
2023/08/10 01:43:23;;;;;;;1.38;1.25;;;19.70;70.60;;;;;;5017582;28;20736;-90
2023/08/10 01:45:54;;;;;;;2.17;1.50;;;19.70;70.60;;;;;;4975947;28;20228;-89
2023/08/10 01:48:23;;;;;;;1.55;1.30;;;19.70;70.50;;;;;;4994064;28;20185;-91
2023/08/10 01:50:49;;;;;;;3.13;1.30;;;19.70;70.60;;;;;;5041476;28;20158;-89
2023/08/10 01:53:19;;;;;;;2.13;1.35;;;19.70;70.60;;;;;;5057812;28;20158;-87
2023/08/10 01:55:46;;;;;;;2.53;1.30;;;19.70;70.60;;;;;;5041969;28;20170;-90
2023/08/10 01:58:16;;;;;;;1.98;1.40;;;19.70;70.60;;;;;;5041586;28;20170;-90
2023/08/10 02:00:42;;;;;;;2.00;1.40;;;19.80;70.70;;;;;;5040763;28;20280;-89
2023/08/10 02:03:08;;;;;;;2.22;1.30;;;19.70;70.60;;;;;;5057925;28;20209;-89
2023/08/10 02:05:34;;;;;;;2.40;1.38;;;19.70;70.60;;;;;;5074848;28;20166;-87
2023/08/10 02:08:07;;;;;;;1.83;1.27;;;19.80;70.70;;;;;;5041513;28;20249;-88
2023/08/10 02:10:39;;;;;;;3.38;1.45;;;19.70;70.70;;;;;;5040738;28;20243;-88
2023/08/10 02:13:07;;;;;;;2.95;1.38;;;19.70;70.70;;;;;;5056744;28;20253;-89
2023/08/10 02:15:36;;;;;;;1.75;1.25;;;19.70;70.70;;;;;;5041245;28;20198;-89
2023/08/10 02:18:07;;;;;;;2.47;1.52;;;19.70;70.60;;;;;;5057749;28;20192;-90
2023/08/10 02:20:32;;;;;;;2.70;1.55;;;19.80;70.70;;;;;;5040131;28;20186;-89
2023/08/10 02:23:04;;;;;;;2.30;1.55;;;19.70;70.60;;;;;;5057266;28;20188;-87
2023/08/10 02:25:34;;;;;;;2.67;1.60;;;19.70;70.60;;;;;;5040163;28;20178;-87
2023/08/10 02:28:00;;;;;;;3.10;1.45;;;19.70;70.70;;;;;;5057348;28;20186;-88
2023/08/10 02:30:30;;;;;;;1.30;1.20;;;19.70;70.60;;;;;;5074414;28;20172;-87
2023/08/10 02:32:56;;;;;;;1.63;1.33;;;19.70;70.60;;;;;;5040379;28;20186;-89
2023/08/10 02:35:27;;;;;;;3.35;1.58;;;19.70;70.60;;;;;;5057651;28;20589;-88
2023/08/10 02:37:53;;;;;;;2.65;1.40;;;19.70;70.60;;;;;;5039097;28;20282;-88
2023/08/10 02:40:21;;;;;;;3.03;1.65;;;19.70;70.70;;;;;;5072900;28;20182;-89
2023/08/10 02:42:54;;;;;;;3.85;1.20;;;19.70;70.70;;;;;;5036551;28;20217;-90
2023/08/10 02:45:20;;;;;;;2.58;1.20;;;19.70;70.70;;;;;;4987408;28;20185;-87
2023/08/10 02:47:50;;;;;;;1.45;1.30;;;19.70;70.70;;;;;;5019918;28;20696;-88
2023/08/10 02:50:19;;;;;;;2.00;1.30;;;19.70;70.80;;;;;;5003764;28;20536;-87
2023/08/10 02:52:45;;;;;;;3.28;1.40;;;19.70;70.80;;;;;;5019706;28;20658;-91
2023/08/10 02:55:11;;;;;;;1.73;1.20;;;19.70;70.80;;;;;;5019510;28;20171;-89
2023/08/10 02:57:40;;;;;;;1.38;1.23;;;19.70;70.80;;;;;;5019441;28;20183;-88
2023/08/10 03:00:12;;;;;;;1.90;1.10;;;19.70;70.80;;;;;;5019767;28;20159;-90
2023/08/10 03:02:43;;;;;;;2.22;1.30;;;19.80;70.90;;;;;;5003456;28;20245;-89
2023/08/10 03:05:13;;;;;;;1.38;1.15;;;19.70;70.70;;;;;;5019233;28;20249;-89
2023/08/10 03:07:43;;;;;;;2.47;1.38;;;19.70;70.70;;;;;;5003202;28;20179;-88
2023/08/10 03:10:09;;;;;;;2.60;1.58;;;19.70;70.70;;;;;;5005919;28;20206;-88
2023/08/10 03:12:34;;;;;;;3.15;1.40;;;19.70;71.00;;;;;;5055351;28;20271;-91
2023/08/10 03:15:01;;;;;;;2.17;1.30;;;19.70;70.90;;;;;;5057050;28;20221;-91
2023/08/10 03:17:30;;;;;;;2.33;1.30;;;19.80;70.90;;;;;;5057042;28;20165;-90
2023/08/10 03:20:06;;;;;;;2.40;1.50;;;19.70;70.70;;;;;;5041483;28;20185;-88
2023/08/10 03:22:37;;;;;;;1.85;1.10;;;19.70;70.70;;;;;;5040318;28;20212;-92
2023/08/10 03:25:08;;;;;;;3.22;1.27;;;19.70;70.80;;;;;;5055788;28;20645;-87
2023/08/10 03:27:35;;;;;;;3.30;1.30;;;19.70;70.90;;;;;;5056007;28;20181;-89
2023/08/10 03:30:00;;;;;;;2.45;1.45;;;19.70;70.80;;;;;;5056589;28;20146;-88
2023/08/10 03:32:26;;;;;;;2.30;1.40;;;19.70;70.90;;;;;;5057110;28;20577;-88
2023/08/10 03:34:56;;;;;;;2.47;1.40;;;19.70;70.90;;;;;;5040067;28;20166;-89
2023/08/10 03:37:26;;;;;;;2.13;1.33;;;19.70;70.90;;;;;;5055773;28;20186;-86
2023/08/10 03:39:53;;;;;;;2.47;1.35;;;19.70;71.00;;;;;;5039545;28;20663;-89
2023/08/10 03:42:19;;;;;;;1.80;1.20;;;19.80;71.00;;;;;;5056737;28;20158;-89
2023/08/10 03:44:49;;;;;;;2.47;1.25;;;19.70;71.00;;;;;;5040890;28;20534;-89
2023/08/10 03:47:19;;;;;;;2.08;1.40;;;19.80;71.00;;;;;;5056290;28;20266;-91
2023/08/10 03:49:51;;;;;;;3.28;1.38;;;19.70;71.00;;;;;;5039657;28;20192;-91
2023/08/10 03:52:20;;;;;;;2.22;1.40;;;19.70;71.00;;;;;;5055085;28;20182;-91
2023/08/10 03:54:49;;;;;;;1.95;1.30;;;19.70;71.00;;;;;;5019357;28;20178;-91
2023/08/10 03:57:15;;;;;;;1.58;1.30;;;19.60;70.90;;;;;;5040419;28;20185;-89
2023/08/10 03:59:44;;;;;;;1.90;1.33;;;19.70;71.00;;;;;;5023218;28;20182;-90
2023/08/10 04:02:13;;;;;;;2.35;1.50;;;19.70;70.90;;;;;;5023731;28;20194;-87
2023/08/10 04:04:39;;;;;;;1.77;1.33;;;19.70;71.00;;;;;;5039173;28;20213;-89
2023/08/10 04:07:12;;;;;;;2.30;1.42;;;19.60;70.90;;;;;;5023375;28;20678;-88
2023/08/10 04:09:46;;;;;;;1.83;1.13;;;19.70;71.00;;;;;;5023020;28;20175;-89
2023/08/10 04:12:14;;;;;;;2.08;1.30;;;19.70;71.00;;;;;;5022297;28;20206;-88
2023/08/10 04:14:40;;;;;;;2.45;1.38;;;19.70;71.90;;;;;;5039637;28;20185;-88
2023/08/10 04:17:12;;;;;;;1.95;1.20;;;19.70;71.00;;;;;;5003344;28;20285;-88
2023/08/10 04:19:43;;;;;;;2.50;1.35;;;19.70;71.00;;;;;;4986393;28;20596;-88
2023/08/10 04:22:15;;;;;;;1.48;1.23;;;19.70;70.90;;;;;;4986128;28;20183;-89
2023/08/10 04:24:45;;;;;;;1.65;1.33;;;19.60;70.90;;;;;;4988963;28;20686;-89
2023/08/10 04:27:12;;;;;;;2.88;1.38;;;19.70;71.00;;;;;;5042156;28;20190;-89
2023/08/10 04:29:47;;;;;;;2.05;1.40;;;19.70;71.00;;;;;;5058594;28;20261;-89
2023/08/10 04:32:17;;;;;;;2.33;1.50;;;19.70;71.00;;;;;;5041523;28;20264;-89
2023/08/10 04:34:43;;;;;;;2.47;1.40;;;19.70;71.00;;;;;;5058949;28;20185;-89
2023/08/10 04:37:09;;;;;;;1.65;1.10;;;19.70;71.00;;;;;;5075385;28;20189;-89
2023/08/10 04:39:43;;;;;;;1.98;1.33;;;19.70;71.00;;;;;;5075780;28;20165;-88
2023/08/10 04:42:11;;;;;;;1.92;1.40;;;19.70;71.00;;;;;;5041403;28;20224;-88
2023/08/10 04:44:46;;;;;;;1.63;1.30;;;19.70;71.00;;;;;;5058673;28;20197;-88
2023/08/10 04:47:16;;;;;;;1.58;1.30;;;19.70;71.00;;;;;;5058410;28;21144;-91
2023/08/10 04:49:46;;;;;;;3.40;1.40;;;19.70;71.10;;;;;;5042685;28;20194;-89
2023/08/10 04:52:19;;;;;;;1.55;1.30;;;19.80;71.10;;;;;;5059320;28;20658;-91
2023/08/10 04:54:45;;;;;;;2.40;1.48;;;19.70;71.10;;;;;;5042641;28;20202;-88
2023/08/10 04:57:12;;;;;;;2.83;1.35;;;19.70;71.10;;;;;;5039198;28;20178;-89
2023/08/10 04:59:38;;;;;;;1.48;1.38;;;19.70;71.10;;;;;;5021778;28;20179;-89
2023/08/10 05:02:04;;;;;;;2.53;1.30;;;19.80;71.10;;;;;;5055179;28;20185;-89
2023/08/10 05:04:36;;;;;;;1.65;1.45;;;19.70;71.00;;;;;;5022128;28;20241;-89
2023/08/10 05:07:09;;;;;;;2.15;1.20;;;19.70;71.10;;;;;;5055018;28;20652;-89
2023/08/10 05:09:43;;;;;;;1.65;1.38;;;19.70;71.10;;;;;;5038726;28;20183;-88
2023/08/10 05:12:10;;;;;;;1.83;1.35;;;19.60;71.10;;;;;;5021617;28;20245;-90
2023/08/10 05:14:40;;;;;;;2.15;1.38;;;19.70;71.10;;;;;;5022716;28;20253;-89
2023/08/10 05:17:06;;;;;;;2.75;1.30;;;19.70;71.10;;;;;;5055831;28;20186;-89
2023/08/10 05:19:32;;;;;;;2.25;1.33;;;19.70;71.10;;;;;;5021959;28;20711;-89
2023/08/10 05:21:58;;;;;;;1.70;1.52;;;19.70;71.10;;;;;;5022390;28;20226;-89
2023/08/10 05:24:26;;;;;;;2.05;1.33;;;19.70;71.10;;;;;;5038410;28;20193;-88
2023/08/10 05:26:56;;;;;;;2.08;1.08;;;19.70;71.10;;;;;;5078712;28;20181;-88
2023/08/10 05:29:22;;;;;;;1.27;1.17;;;19.70;71.10;;;;;;5048506;28;20275;-88
2023/08/10 05:31:54;;;;;;;1.48;1.30;;;19.70;71.20;;;;;;5065341;28;20166;-88
2023/08/10 05:34:20;;;;;;;1.95;1.40;;;19.70;71.20;;;;;;5025063;28;20185;-89
2023/08/10 05:36:46;;;;;;;3.05;1.20;;;19.80;71.20;;;;;;5041211;28;20217;-90
2023/08/10 05:39:12;;;;;;;1.65;1.20;;;19.70;71.10;;;;;;5025551;28;20174;-88
2023/08/10 05:41:38;;;;;;;1.58;1.20;;;19.70;71.10;;;;;;5025435;28;20170;-89
2023/08/10 05:44:12;;;;;;;3.22;1.50;;;19.70;71.10;;;;;;5041503;28;20306;-88
2023/08/10 05:46:38;;;;;;;2.25;1.35;;;19.70;71.10;;;;;;5025806;28;20185;-88
2023/08/10 05:49:04;;;;;;;1.63;1.38;;;19.70;71.20;;;;;;5020123;28;20174;-87
2023/08/10 05:51:30;;;;;;;1.73;1.13;;;19.70;71.30;;;;;;5009589;28;20265;-87
2023/08/10 05:53:56;;;;;;;2.28;1.50;;;19.70;71.40;;;;;;5049634;28;20277;-87
2023/08/10 05:56:22;;;;;;;1.17;1.00;;;19.70;71.50;;;;;;5049574;28;20173;-87
2023/08/10 05:58:48;;;;;;;1.17;1.00;;;19.70;71.60;;;;;;5033168;28;20166;-87
2023/08/10 06:01:13;;;;;;;1.52;1.25;;;19.70;71.80;;;;;;5032917;28;20174;-88
2023/08/10 06:03:39;;;;;;;1.27;1.02;;;19.70;71.90;;;;;;5050129;28;20289;-88
2023/08/10 06:06:07;;;;;;;1.55;1.20;;;19.70;72.00;;;;;;5051419;28;20265;-88
2023/08/10 06:08:33;;;;;;;1.27;0.98;;;19.60;72.10;;;;;;5038052;28;20161;-87
2023/08/10 06:11:00;;;;;;;1.10;1.00;;;19.60;71.80;;;;;;5054808;28;20155;-87
2023/08/10 06:13:26;;;;;;;1.42;1.05;;;19.60;71.90;;;;;;5054668;28;20386;-87
2023/08/10 06:15:52;;;;;;;1.20;1.10;;;19.60;72.00;;;;;;5053535;28;20245;-88
2023/08/10 06:18:18;;;;;;;1.05;0.80;;;19.60;72.10;;;;;;5069885;28;20166;-87
2023/08/10 06:20:46;;;;;;;1.33;0.98;;;19.60;72.40;;;;;;5053899;28;20498;-86
2023/08/10 06:23:12;;;;;;;0.90;0.90;;;19.60;72.40;;;;;;5055124;28;20263;-87
2023/08/10 06:25:39;;;;;;;1.05;0.95;;;19.60;72.40;;;;;;5036605;28;20200;-87
2023/08/10 06:28:07;;;;;;;0.85;0.85;;;19.60;72.50;;;;;;5054542;28;20154;-87
2023/08/10 06:30:33;;;;;;;0.95;0.80;;;19.60;72.40;;;;;;5037279;28;20173;-87
2023/08/10 06:32:59;;;;;;;1.17;0.80;;;19.60;72.50;;;;;;5053339;28;20154;-89
2023/08/10 06:35:25;;;;;;;1.10;1.00;;;19.60;72.50;;;;;;5053251;28;20154;-88
2023/08/10 06:37:55;;;;;;;0.90;0.80;;;19.60;72.80;;;;;;5054317;28;20192;-87
2023/08/10 06:40:21;;;;;;;1.55;0.90;;;19.60;72.70;;;;;;5052878;28;20546;-87
2023/08/10 06:42:47;;;;;;;0.85;0.85;;;19.60;72.80;;;;;;5053221;28;20190;-85
2023/08/10 06:45:13;;;;;;;1.70;1.15;;;19.60;72.80;;;;;;5054336;28;20154;-86
2023/08/10 06:47:40;;;;;;;0.90;0.90;;;19.60;72.90;;;;;;5053795;28;20204;-88
2023/08/10 06:50:08;;;;;;;1.08;0.98;;;19.60;73.00;;;;;;5036394;28;20166;-89
2023/08/10 06:52:35;;;;;;;1.30;0.77;;;19.60;73.00;;;;;;5037539;28;20163;-88
2023/08/10 06:55:01;;;;;;;0.70;0.70;;;19.60;73.00;;;;;;5053364;28;20208;-88
2023/08/10 06:57:27;;;;;;;0.73;0.73;;;19.60;73.00;;;;;;5053597;28;20216;-88
2023/08/10 06:59:53;;;;;;;0.80;0.70;;;19.60;73.00;;;;;;5054950;28;20158;-88
2023/08/10 07:02:19;;;;;;;1.10;1.00;;;19.50;73.00;;;;;;5055032;28;20597;-88
2023/08/10 07:04:45;;;;;;;1.27;0.95;;;19.60;73.30;;;;;;5056718;28;20243;-88
2023/08/10 07:07:15;;;;;;;0.93;0.90;;;19.60;73.40;;;;;;5055281;28;20199;-88
2023/08/10 07:09:45;;;;;;;0.95;0.90;;;19.60;73.40;;;;;;5055589;28;20185;-88
2023/08/10 07:12:12;;;;;;;0.82;0.80;;;19.60;73.60;;;;;;5053001;28;20216;-88
2023/08/10 07:14:44;;;;;;;0.88;0.88;;;19.60;73.60;;;;;;5053865;28;20170;-87
2023/08/10 07:17:17;;;;;;;1.50;0.77;;;19.60;73.40;;;;;;5053670;28;20644;-88
2023/08/10 07:19:49;;;;;;;1.00;0.82;;;19.60;73.70;;;;;;5054128;28;20189;-87
2023/08/10 07:22:22;;;;;;;0.85;0.85;;;19.50;73.70;;;;;;5053896;28;20269;-88
2023/08/10 07:24:54;;;;;;;0.95;0.90;;;19.50;73.70;;;;;;5053486;28;20684;-87
2023/08/10 07:27:26;;;;;;;1.02;0.70;;;19.60;73.80;;;;;;5037361;28;20255;-88
2023/08/10 07:29:58;;;;;;;0.88;0.80;;;19.50;73.80;;;;;;5054386;28;20182;-88
2023/08/10 07:32:30;;;;;;;0.80;0.80;;;19.60;73.90;;;;;;5040544;28;20182;-88
2023/08/10 07:35:03;;;;;;;1.10;0.80;;;19.50;73.80;;;;;;5056916;28;20313;-88
2023/08/10 07:37:35;;;;;;;1.08;1.00;;;19.60;74.00;;;;;;5039975;28;20181;-87
2023/08/10 07:40:08;;;;;;;0.90;0.70;;;19.50;74.10;;;;;;5040046;28;20190;-88
2023/08/10 07:42:38;;;;;;;0.70;0.70;;;19.50;74.10;;;;;;5038898;28;20208;-88
2023/08/10 07:45:10;;;;;;;0.70;0.70;;;19.50;74.20;;;;;;5039195;28;20188;-86
2023/08/10 07:47:41;;;;;;;0.85;0.82;;;19.50;74.20;;;;;;5056078;28;20212;-87
2023/08/10 07:50:11;;;;;;;0.70;0.70;;;19.50;74.20;;;;;;5055887;28;20190;-88
2023/08/10 07:52:41;;;;;;;3.00;0.70;;;19.60;74.30;;;;;;5056629;28;20264;-88
2023/08/10 07:55:13;;;;;;;0.80;0.80;;;19.50;74.20;;;;;;5038725;28;20182;-87
2023/08/10 07:57:42;;;;;;;0.80;0.80;;;19.50;74.30;;;;;;5056259;28;20192;-87
2023/08/10 08:00:13;;;;;;;0.70;0.70;;;19.50;74.50;;;;;;5038848;28;20667;-86
2023/08/10 08:02:42;;;;;;;0.70;0.70;;;19.50;74.40;;;;;;5039419;28;20182;-86
2023/08/10 08:05:12;;;;;;;0.60;0.60;;;19.50;74.30;;;;;;5054367;28;20178;-87
2023/08/10 08:07:42;;;;;;;2.28;0.63;;;19.50;74.40;;;;;;5054257;28;20182;-87
2023/08/10 08:10:12;;;;;;;2.90;0.80;;;19.50;74.40;;;;;;5055162;28;20202;-88
2023/08/10 08:12:37;;;;;;;0.93;0.90;;;19.50;74.50;;;;;;5054403;28;20739;-88
2023/08/10 08:15:06;;;;;;;0.88;0.80;;;19.60;74.40;;;;;;5054818;28;20170;-87
2023/08/10 08:18:14;;;;;;;1.08;0.68;;;19.50;74.50;;;;;;5036241;28;20189;-88
2023/08/10 08:20:46;;;;;;;4.13;0.80;;;19.60;74.70;;;;;;5052335;28;20209;-88
2023/08/10 08:23:17;;;;;;;0.60;0.60;;;19.60;74.90;;;;;;5053045;28;20202;-87
2023/08/10 08:25:45;;;;;;;2.35;0.82;;;19.60;74.90;;;;;;5035331;28;20217;-87
2023/08/10 08:28:13;;;;;;;0.70;0.70;;;19.60;74.60;;;;;;5035145;28;20185;-87
2023/08/10 08:30:43;;;;;;;1.65;0.68;;;19.60;74.90;;;;;;5034932;28;20181;-89
2023/08/10 08:33:12;;;;;;;0.85;0.68;;;19.50;75.10;;;;;;5057660;28;20182;-86
2023/08/10 08:35:43;;;;;;;1.67;0.98;;;19.50;75.20;;;;;;5055273;28;20601;-87
2023/08/10 08:38:13;;;;;;;2.92;0.80;;;19.50;75.30;;;;;;5052917;28;20221;-85
2023/08/10 08:40:42;;;;;;;0.82;0.70;;;19.40;75.40;;;;;;5037716;28;20189;-87
2023/08/10 08:43:09;;;;;;;0.98;0.88;;;19.40;75.70;;;;;;5040724;28;20248;-87
2023/08/10 08:45:40;;;;;;;3.92;0.82;;;19.40;75.80;;;;;;5040599;28;20239;-87
2023/08/10 08:48:07;;;;;;;4.55;0.70;;;19.30;75.80;;;;;;5040603;28;20182;-86
2023/08/10 08:50:38;;;;;;;1.10;0.85;;;19.30;75.90;;;;;;5057387;28;20178;-87
2023/08/10 08:53:07;;;;;;;1.85;0.75;;;19.30;76.20;;;;;;5057242;28;20645;-89
2023/08/10 08:55:34;;;;;;;2.15;0.90;;;19.40;76.10;;;;;;5057211;28;20272;-87
2023/08/10 08:58:01;;;;;;;2.85;0.82;;;19.30;76.30;;;;;;5041132;28;20244;-87
2023/08/10 09:00:30;;;;;;;3.13;0.90;;;19.30;76.30;;;;;;5056289;28;20262;-89
2023/08/10 09:02:58;;;;;;;0.90;0.70;;;19.30;76.20;;;;;;5039732;28;20284;-87
2023/08/10 09:05:25;;;;;;;2.67;0.80;;;19.30;76.50;;;;;;5056845;28;20229;-87
2023/08/10 09:07:52;;;;;;;2.78;0.93;;;19.30;77.50;;;;;;5057129;28;20583;-86
2023/08/10 09:10:20;;;;;;;2.42;0.80;;;19.30;76.80;;;;;;5037808;28;20332;-88
2023/08/10 09:12:46;;;;;;;3.35;0.65;;;19.30;77.00;;;;;;5038370;28;20290;-87
2023/08/10 09:15:17;;;;;;;1.42;0.80;;;19.30;77.10;;;;;;5072384;28;20166;-87
2023/08/10 09:17:47;;;;;;;3.85;1.10;;;19.30;77.10;;;;;;5054438;28;20595;-87
2023/08/10 09:20:26;;;;;;;4.03;0.90;;;19.30;77.20;;;;;;5039807;28;20162;-89
2023/08/10 09:22:54;;;;;;;6.50;0.65;;;19.20;77.30;;;;;;5055127;28;20305;-88
2023/08/10 09:25:22;;;;;;;1.88;0.85;;;19.30;77.40;;;;;;5054951;28;20150;-87
2023/08/10 09:27:52;;;;;;;5.57;0.80;;;19.30;77.50;;;;;;5054989;28;20161;-87
2023/08/10 09:30:19;;;;;;;4.38;0.90;;;19.20;77.50;;;;;;5054221;28;20217;-87
2023/08/10 09:32:45;;;;;;;5.43;0.90;;;19.30;77.60;;;;;;5054864;28;20150;-87
2023/08/10 09:35:13;;;;;;;2.50;0.98;;;19.20;77.50;;;;;;5038382;28;20198;-87
2023/08/10 09:37:39;;;;;;;2.05;0.60;;;19.20;77.60;;;;;;5054375;28;20559;-86
2023/08/10 09:40:10;;;;;;;1.98;0.80;;;19.20;77.60;;;;;;5037776;28;20690;-87
2023/08/10 09:42:41;;;;;;;3.53;0.80;;;19.20;77.80;;;;;;5039001;28;20181;-87
2023/08/10 09:45:10;;;;;;;0.70;0.70;;;19.30;77.80;;;;;;5053661;28;20590;-87
2023/08/10 09:47:38;;;;;;;3.58;0.90;;;19.30;77.90;;;;;;5054470;28;20498;-86
2023/08/10 09:50:07;;;;;;;1.65;0.70;;;19.20;77.70;;;;;;5054023;28;20191;-86
2023/08/10 09:52:34;;;;;;;1.02;0.73;;;19.20;77.80;;;;;;5070192;28;20162;-86
2023/08/10 09:55:00;;;;;;;1.25;0.70;;;19.20;77.70;;;;;;5037041;28;20170;-86
2023/08/10 09:57:27;;;;;;;1.48;0.60;;;19.20;77.80;;;;;;5053969;28;20185;-87
2023/08/10 09:59:54;;;;;;;0.90;0.80;;;19.20;77.80;;;;;;5055253;28;20174;-86
2023/08/10 10:02:24;;;;;;;3.42;0.90;;;19.20;77.90;;;;;;5055299;28;20621;-86
2023/08/10 10:04:50;;;;;;;2.00;0.70;;;19.20;78.00;;;;;;5036591;28;20213;-87
2023/08/10 10:07:24;;;;;;;1.63;0.80;;;19.20;78.00;;;;;;5053810;28;20169;-86
2023/08/10 10:09:50;;;;;;;2.65;0.75;;;19.20;78.10;;;;;;5055069;28;20158;-86
2023/08/10 10:12:16;;;;;;;1.25;0.70;;;19.20;78.10;;;;;;5037359;28;20241;-87
2023/08/10 10:14:43;;;;;;;1.63;0.70;;;19.20;78.30;;;;;;5070731;28;20504;-86
2023/08/10 10:17:19;;;;;;;2.13;0.70;;;19.20;78.20;;;;;;5053360;28;20612;-86
2023/08/10 10:19:46;;;;;;;2.35;0.75;;;19.30;78.20;;;;;;5053452;28;20153;-87
2023/08/10 10:22:12;;;;;;;0.63;0.63;;;19.20;78.10;;;;;;5053298;28;20151;-86
2023/08/10 10:24:43;;;;;;;0.82;0.70;;;19.20;78.30;;;;;;5053036;28;20186;-86
2023/08/10 10:27:11;;;;;;;3.38;0.80;;;19.20;78.30;;;;;;5052583;28;20410;-87
2023/08/10 10:29:40;;;;;;;2.95;0.93;;;19.20;78.40;;;;;;5053028;28;20185;-87
2023/08/10 10:32:12;;;;;;;1.25;0.75;;;19.20;78.40;;;;;;5054690;28;20155;-86
2023/08/10 10:34:42;;;;;;;0.73;0.73;;;19.20;78.40;;;;;;5055467;28;20276;-87
2023/08/10 10:37:18;;;;;;;3.60;0.82;;;19.20;78.50;;;;;;5036009;28;20178;-87
2023/08/10 10:39:49;;;;;;;1.50;0.70;;;19.20;78.50;;;;;;5053116;28;20149;-87
2023/08/10 10:42:17;;;;;;;3.38;0.82;;;19.20;78.40;;;;;;5036309;28;20601;-87
2023/08/10 10:45:17;;;;;;;0.80;0.70;;;19.20;78.50;;;;;;5069938;28;20255;-88
2023/08/10 10:47:50;;;;;;;1.52;0.90;;;19.20;78.50;;;;;;5052726;28;20173;-86
2023/08/10 10:50:22;;;;;;;4.00;1.10;;;19.30;78.30;;;;;;5062801;28;20182;-86
2023/08/10 10:53:06;;;;;;;1.00;0.80;;;19.30;78.40;;;;;;5055819;28;20209;-87
2023/08/10 10:55:43;;;;;;;1.40;0.85;;;19.20;78.40;;;;;;5040009;28;20181;-88
2023/08/10 11:01:32;;;;;;;1.80;0.75;;;19.20;78.60;;;;;;5074840;28;20180;-86
2023/08/10 11:04:13;;;;;;;1.83;0.77;;;19.20;78.70;;;;;;5061043;28;20737;-86
2023/08/10 11:06:57;;;;;;;2.35;0.80;;;19.20;78.70;;;;;;5061922;28;20177;-88
2023/08/10 11:09:37;;;;;;;0.82;0.68;;;19.20;78.80;;;;;;5062930;28;20621;-86
2023/08/10 11:12:03;;;;;;;1.67;0.73;;;19.20;78.80;;;;;;5060606;28;20549;-87
2023/08/10 11:14:38;;;;;;;2.72;0.95;;;19.20;78.80;;;;;;5078337;28;20161;-86
2023/08/10 11:17:09;;;;;;;1.85;0.90;;;19.20;78.90;;;;;;5059848;28;20188;-86
2023/08/10 11:19:42;;;;;;;2.45;0.77;;;19.20;78.90;;;;;;5043553;28;20193;-86
2023/08/10 11:22:16;;;;;;;1.38;0.80;;;19.20;79.00;;;;;;5042828;28;20188;-85
2023/08/10 11:24:48;;;;;;;6.85;1.33;;;19.20;79.00;;;;;;5043035;28;20236;-86
2023/08/10 11:27:20;;;;;;;1.40;0.85;;;19.20;78.90;;;;;;5041408;28;20648;-86
2023/08/10 11:29:53;;;;;;;1.77;0.80;;;19.20;79.00;;;;;;5057683;28;20511;-87
2023/08/10 11:32:26;;;;;;;4.07;1.17;;;19.20;79.10;;;;;;5041311;28;20185;-87
2023/08/10 11:34:58;;;;;;;0.80;0.75;;;19.20;79.10;;;;;;5057912;28;20189;-86
2023/08/10 11:37:35;;;;;;;1.00;0.70;;;19.20;79.10;;;;;;5075398;28;20191;-86
2023/08/10 11:40:16;;;;;;;1.52;0.77;;;19.20;79.00;;;;;;5059041;28;20181;-86
2023/08/10 11:42:49;;;;;;;3.15;1.20;;;19.20;79.00;;;;;;5059469;28;20185;-85
2023/08/10 11:45:21;;;;;;;1.10;0.80;;;19.30;79.00;;;;;;5055652;28;20169;-86
2023/08/10 11:47:58;;;;;;;3.90;0.88;;;19.20;79.00;;;;;;5055147;28;20181;-86
2023/08/10 11:50:29;;;;;;;0.77;0.77;;;19.20;79.10;;;;;;5072305;28;20164;-87
2023/08/10 11:53:15;;;;;;;1.23;0.70;;;19.20;79.00;;;;;;5055622;28;20272;-87
2023/08/10 11:55:50;;;;;;;1.52;1.00;;;19.30;79.10;;;;;;5041147;28;20181;-87
2023/08/10 11:58:21;;;;;;;1.00;0.90;;;19.30;79.20;;;;;;5038707;28;20276;-87
2023/08/10 12:00:53;;;;;;;3.78;0.70;;;19.30;79.10;;;;;;5071685;28;20636;-88
2023/08/10 12:03:29;;;;;;;0.82;0.70;;;19.20;78.90;;;;;;5055426;28;20285;-88
2023/08/10 12:06:06;;;;;;;1.63;0.93;;;19.30;79.00;;;;;;5038168;28;20180;-88
2023/08/10 12:08:40;;;;;;;1.45;0.90;;;19.20;79.00;;;;;;5019025;28;20177;-88
2023/08/10 12:11:12;;;;;;;1.50;0.88;;;19.20;79.00;;;;;;5018162;28;20230;-88
2023/08/10 12:13:49;;;;;;;0.70;0.65;;;19.30;79.00;;;;;;5018027;28;20290;-85
2023/08/10 12:16:19;;;;;;;0.95;0.80;;;19.20;79.00;;;;;;5019135;28;20185;-85
2023/08/10 12:18:50;;;;;;;1.10;1.00;;;19.30;79.10;;;;;;5007280;28;20205;-87
2023/08/10 12:21:19;;;;;;;1.88;1.08;;;19.20;79.00;;;;;;5023101;28;20186;-87
2023/08/10 12:23:49;;;;;;;1.48;0.80;;;19.20;79.20;;;;;;5022058;28;20210;-87
2023/08/10 12:26:18;;;;;;;0.90;0.80;;;19.20;79.10;;;;;;5006650;28;20180;-87
2023/08/10 12:28:46;;;;;;;2.75;1.00;;;19.40;79.30;;;;;;5005232;28;20184;-87
2023/08/10 12:31:17;;;;;;;2.90;0.75;;;19.20;79.20;;;;;;5023338;28;20197;-85
2023/08/10 12:33:45;;;;;;;2.92;0.90;;;19.30;79.10;;;;;;5006836;28;20594;-87
2023/08/10 12:36:15;;;;;;;0.85;0.70;;;19.30;79.00;;;;;;5021264;28;20181;-87
2023/08/10 12:38:43;;;;;;;1.08;0.82;;;19.30;79.10;;;;;;5009626;28;20267;-85
2023/08/10 12:41:11;;;;;;;0.80;0.70;;;19.30;79.00;;;;;;5075936;28;20199;-86
2023/08/10 12:43:39;;;;;;;0.82;0.77;;;19.30;78.90;;;;;;5058780;28;20232;-87
2023/08/10 12:46:07;;;;;;;0.90;0.90;;;19.30;78.90;;;;;;5041284;28;20177;-86
2023/08/10 12:48:46;;;;;;;1.50;0.95;;;19.30;78.90;;;;;;5057581;28;20181;-87
2023/08/10 12:51:16;;;;;;;1.17;1.08;;;19.30;78.90;;;;;;5036990;28;20178;-87
2023/08/10 12:53:43;;;;;;;0.98;0.98;;;19.30;78.80;;;;;;5037213;28;20220;-87
2023/08/10 12:56:10;;;;;;;1.23;0.90;;;19.30;78.90;;;;;;5037265;28;20269;-87
2023/08/10 12:58:38;;;;;;;1.48;0.90;;;19.40;78.80;;;;;;5020497;28;20192;-87
2023/08/10 13:01:07;;;;;;;0.80;0.77;;;19.30;78.70;;;;;;5020938;28;20185;-87
2023/08/10 13:03:35;;;;;;;1.73;1.20;;;19.30;78.70;;;;;;5037608;28;20217;-88